Time;durP1;ratioP1;P1;durP2;ratioP2;P2;SDS_P1;SDS_P2;PMS_P1;PMS_P2;Temp;Humidity;BMP_temperature;BMP_pressure;BME280_temperature;BME280_humidity;BME280_pressure;Samples;Min_cycle;Max_cycle;Signal;HPM_P1;HPM_P2
2024/01/14 00:02:17;;;;;;;104.03;41.03;;;;;;;;;;5057619;28;20028;-85
2024/01/14 00:04:42;;;;;;;100.87;42.77;;;;;;;;;;5066262;28;20111;-86
2024/01/14 00:07:08;;;;;;;64.80;29.57;;;;;;;;;;5067735;28;20701;-87
2024/01/14 00:09:33;;;;;;;37.73;20.43;;;;;;;;;;5056036;28;20646;-86
2024/01/14 00:11:58;;;;;;;74.60;32.40;;;;;;;;;;5064596;28;20020;-86
2024/01/14 00:14:24;;;;;;;51.13;27.67;;;;;;;;;;5084431;28;20635;-86
2024/01/14 00:16:49;;;;;;;116.70;50.93;;;;;;;;;;5066365;28;20178;-86
2024/01/14 00:19:15;;;;;;;148.43;71.90;;;;;;;;;;5053461;28;20081;-85
2024/01/14 00:21:40;;;;;;;58.83;26.70;;;;;;;;;;5064767;28;20016;-86
2024/01/14 00:24:06;;;;;;;140.50;65.30;;;;;;;;;;5050412;28;20036;-85
2024/01/14 00:26:32;;;;;;;51.77;27.13;;;;;;;;;;5066610;28;20547;-86
2024/01/14 00:29:01;;;;;;;96.37;49.40;;;;;;;;;;5054408;28;20605;-86
2024/01/14 00:31:27;;;;;;;71.60;35.63;;;;;;;;;;5046921;28;20717;-85
2024/01/14 00:33:52;;;;;;;155.93;77.13;;;;;;;;;;5078669;28;20028;-86
2024/01/14 00:36:18;;;;;;;111.00;50.27;;;;;;;;;;5068061;28;20017;-86
2024/01/14 00:38:44;;;;;;;78.50;42.10;;;;;;;;;;5049277;28;20088;-86
2024/01/14 00:41:10;;;;;;;56.33;28.63;;;;;;;;;;5065036;28;20610;-86
2024/01/14 00:43:36;;;;;;;56.70;30.17;;;;;;;;;;5059223;28;20047;-85
2024/01/14 00:46:02;;;;;;;72.20;34.03;;;;;;;;;;5066531;28;20150;-86
2024/01/14 00:48:28;;;;;;;49.60;27.00;;;;;;;;;;5065638;28;20469;-86
2024/01/14 00:50:53;;;;;;;167.20;73.77;;;;;;;;;;5060348;28;20009;-86
2024/01/14 00:53:20;;;;;;;49.83;24.77;;;;;;;;;;5094101;28;20020;-86
2024/01/14 00:55:46;;;;;;;66.40;34.77;;;;;;;;;;5096349;28;20016;-85
2024/01/14 00:58:12;;;;;;;68.70;37.27;;;;;;;;;;5068337;28;20025;-86
2024/01/14 01:00:37;;;;;;;62.33;31.70;;;;;;;;;;5064975;28;20017;-86
2024/01/14 01:03:04;;;;;;;47.80;23.33;;;;;;;;;;5069995;28;20485;-86
2024/01/14 01:05:29;;;;;;;80.00;41.53;;;;;;;;;;5089468;28;20498;-86
2024/01/14 01:07:54;;;;;;;78.83;33.83;;;;;;;;;;5086314;28;20020;-85
2024/01/14 01:10:19;;;;;;;166.07;82.00;;;;;;;;;;5078500;28;20008;-85
2024/01/14 01:12:45;;;;;;;107.60;53.03;;;;;;;;;;5065903;28;20019;-86
2024/01/14 01:15:10;;;;;;;120.67;57.73;;;;;;;;;;5064407;28;20139;-86
2024/01/14 01:17:35;;;;;;;100.33;49.27;;;;;;;;;;5047525;28;20048;-86
2024/01/14 01:20:01;;;;;;;109.33;60.93;;;;;;;;;;5055883;28;20051;-86
2024/01/14 01:22:27;;;;;;;123.17;57.60;;;;;;;;;;5047450;28;20032;-86
2024/01/14 01:24:52;;;;;;;150.27;84.37;;;;;;;;;;5078106;28;20008;-86
2024/01/14 01:27:17;;;;;;;105.37;53.03;;;;;;;;;;5070494;28;20021;-86
2024/01/14 01:29:43;;;;;;;101.53;52.57;;;;;;;;;;5058016;28;20491;-86
2024/01/14 01:32:09;;;;;;;114.13;62.67;;;;;;;;;;5086212;28;20026;-86
2024/01/14 01:34:35;;;;;;;48.07;25.77;;;;;;;;;;5052694;28;20107;-86
2024/01/14 01:37:00;;;;;;;44.70;22.23;;;;;;;;;;5054128;28;20085;-86
2024/01/14 01:39:25;;;;;;;41.83;22.20;;;;;;;;;;5072114;28;20056;-86
2024/01/14 01:41:51;;;;;;;71.17;34.43;;;;;;;;;;5070564;28;20446;-87
2024/01/14 01:44:16;;;;;;;39.13;21.47;;;;;;;;;;5056888;28;20035;-86
2024/01/14 01:46:42;;;;;;;101.20;52.07;;;;;;;;;;5044410;28;20020;-85
2024/01/14 01:49:08;;;;;;;54.20;26.60;;;;;;;;;;5050037;28;20104;-85
2024/01/14 01:51:34;;;;;;;92.13;47.77;;;;;;;;;;5055407;28;20111;-86
2024/01/14 01:53:59;;;;;;;154.07;67.30;;;;;;;;;;5069523;28;20012;-86
2024/01/14 01:56:25;;;;;;;101.57;46.97;;;;;;;;;;5063903;28;20742;-86
2024/01/14 01:58:51;;;;;;;92.43;45.40;;;;;;;;;;5067869;28;20066;-85
2024/01/14 02:01:16;;;;;;;73.63;35.37;;;;;;;;;;5063581;28;20048;-86
2024/01/14 02:03:42;;;;;;;54.17;27.53;;;;;;;;;;5066269;28;20461;-86
2024/01/14 02:06:08;;;;;;;54.07;27.70;;;;;;;;;;5047843;28;20124;-86
2024/01/14 02:08:34;;;;;;;131.93;54.17;;;;;;;;;;5064174;28;20470;-86
2024/01/14 02:11:00;;;;;;;146.93;65.50;;;;;;;;;;5045865;28;20016;-85
2024/01/14 02:13:25;;;;;;;51.77;27.10;;;;;;;;;;5061477;28;20028;-86
2024/01/14 02:15:50;;;;;;;86.27;45.80;;;;;;;;;;5052447;28;20056;-86
2024/01/14 02:18:15;;;;;;;85.33;42.30;;;;;;;;;;5061916;28;20581;-85
2024/01/14 02:20:41;;;;;;;64.07;34.73;;;;;;;;;;5058714;28;20101;-86
2024/01/14 02:23:08;;;;;;;39.50;22.63;;;;;;;;;;5060322;28;20615;-86
2024/01/14 02:25:34;;;;;;;34.23;19.60;;;;;;;;;;5055080;28;20107;-85
2024/01/14 02:27:59;;;;;;;42.07;24.17;;;;;;;;;;5043185;28;20557;-85
2024/01/14 02:30:25;;;;;;;33.53;18.27;;;;;;;;;;5059619;28;20020;-86
2024/01/14 02:32:50;;;;;;;30.07;17.77;;;;;;;;;;5058115;28;20028;-86
2024/01/14 02:35:16;;;;;;;34.43;20.83;;;;;;;;;;5039530;28;20025;-85
2024/01/14 02:37:43;;;;;;;16.67;11.23;;;;;;;;;;5045674;28;20056;-86
2024/01/14 02:40:09;;;;;;;50.27;22.13;;;;;;;;;;5050729;28;20016;-85
2024/01/14 02:42:35;;;;;;;30.63;16.07;;;;;;;;;;5062709;28;20060;-86
2024/01/14 02:45:00;;;;;;;64.40;35.83;;;;;;;;;;5070241;28;20035;-85
2024/01/14 02:47:26;;;;;;;37.30;19.03;;;;;;;;;;5061067;28;20390;-86
2024/01/14 02:49:51;;;;;;;35.80;19.10;;;;;;;;;;5054741;28;20024;-85
2024/01/14 02:52:17;;;;;;;49.43;28.80;;;;;;;;;;5082468;28;20023;-86
2024/01/14 02:54:42;;;;;;;77.13;35.33;;;;;;;;;;5045383;28;20012;-85
2024/01/14 02:57:07;;;;;;;59.20;25.57;;;;;;;;;;5046083;28;20445;-86
2024/01/14 02:59:33;;;;;;;69.03;31.93;;;;;;;;;;5055220;28;20107;-86
2024/01/14 03:01:58;;;;;;;29.60;16.33;;;;;;;;;;5054505;28;20016;-86
2024/01/14 03:04:23;;;;;;;36.90;20.63;;;;;;;;;;5062702;28;20123;-86
2024/01/14 03:06:49;;;;;;;42.97;21.63;;;;;;;;;;5046387;28;20052;-86
2024/01/14 03:09:14;;;;;;;24.00;13.87;;;;;;;;;;5026404;28;20058;-86
2024/01/14 03:11:39;;;;;;;29.67;17.07;;;;;;;;;;5075104;28;20012;-86
2024/01/14 03:14:05;;;;;;;51.93;29.63;;;;;;;;;;5066553;28;20115;-85
2024/01/14 03:16:30;;;;;;;41.13;22.80;;;;;;;;;;5060561;28;20604;-85
2024/01/14 03:18:55;;;;;;;25.90;13.37;;;;;;;;;;5030334;28;20024;-85
2024/01/14 03:21:20;;;;;;;36.07;21.63;;;;;;;;;;5046222;28;20013;-85
2024/01/14 03:23:46;;;;;;;24.10;13.53;;;;;;;;;;5062940;28;20029;-85
2024/01/14 03:26:11;;;;;;;41.67;22.87;;;;;;;;;;5063565;28;20519;-85
2024/01/14 03:28:37;;;;;;;20.53;12.43;;;;;;;;;;5063296;28;20016;-86
2024/01/14 03:31:02;;;;;;;32.47;17.70;;;;;;;;;;5044020;28;20054;-85
2024/01/14 03:33:27;;;;;;;34.33;19.27;;;;;;;;;;5044851;28;20017;-85
2024/01/14 03:35:53;;;;;;;39.80;22.50;;;;;;;;;;5058066;28;20020;-86
2024/01/14 03:38:18;;;;;;;29.37;14.63;;;;;;;;;;5069542;28;20023;-84
2024/01/14 03:40:44;;;;;;;54.90;24.93;;;;;;;;;;5085918;28;20430;-85
2024/01/14 03:43:09;;;;;;;48.67;26.47;;;;;;;;;;5050011;28;20726;-86
2024/01/14 03:45:34;;;;;;;41.93;21.10;;;;;;;;;;5074024;28;20016;-85
2024/01/14 03:47:59;;;;;;;39.33;18.57;;;;;;;;;;5069418;28;20179;-85
2024/01/14 03:50:25;;;;;;;47.70;26.47;;;;;;;;;;5071745;28;20111;-85
2024/01/14 03:52:50;;;;;;;43.10;22.60;;;;;;;;;;5079489;28;20046;-85
2024/01/14 03:55:15;;;;;;;33.87;18.40;;;;;;;;;;5066492;28;20075;-85
2024/01/14 03:57:41;;;;;;;42.20;23.50;;;;;;;;;;5044318;28;20071;-85
2024/01/14 04:00:08;;;;;;;35.27;17.60;;;;;;;;;;5045539;28;20103;-87
2024/01/14 04:02:33;;;;;;;31.17;14.50;;;;;;;;;;5067185;28;20044;-86
2024/01/14 04:04:59;;;;;;;44.70;24.93;;;;;;;;;;5061921;28;20024;-86
2024/01/14 04:07:24;;;;;;;30.60;17.17;;;;;;;;;;5026345;28;20032;-84
2024/01/14 04:09:49;;;;;;;37.07;21.10;;;;;;;;;;5040239;28;20021;-87
2024/01/14 04:12:15;;;;;;;32.47;18.03;;;;;;;;;;5080146;28;20362;-86
2024/01/14 04:14:40;;;;;;;31.47;15.53;;;;;;;;;;5066665;28;20016;-86
2024/01/14 04:17:05;;;;;;;30.23;16.57;;;;;;;;;;5065389;28;20621;-86
2024/01/14 04:19:31;;;;;;;38.83;19.93;;;;;;;;;;5062169;28;20035;-87
2024/01/14 04:21:56;;;;;;;79.10;43.37;;;;;;;;;;5053251;28;20032;-86
2024/01/14 04:24:22;;;;;;;76.20;42.17;;;;;;;;;;5064023;28;20559;-86
2024/01/14 04:26:47;;;;;;;54.17;26.53;;;;;;;;;;5053857;28;20024;-86
2024/01/14 04:29:12;;;;;;;35.23;18.83;;;;;;;;;;5052944;28;20012;-85
2024/01/14 04:31:38;;;;;;;41.30;24.83;;;;;;;;;;5069448;28;20111;-86
2024/01/14 04:34:03;;;;;;;28.10;15.90;;;;;;;;;;5057131;28;20628;-86
2024/01/14 04:36:29;;;;;;;45.67;26.03;;;;;;;;;;5061681;28;20074;-86
2024/01/14 04:38:54;;;;;;;39.10;20.67;;;;;;;;;;5091671;28;20017;-85
2024/01/14 04:41:20;;;;;;;33.80;15.90;;;;;;;;;;5082771;28;20059;-86
2024/01/14 04:43:45;;;;;;;34.53;18.10;;;;;;;;;;5064930;28;20021;-86
2024/01/14 04:46:10;;;;;;;40.17;21.03;;;;;;;;;;5073612;28;20106;-86
2024/01/14 04:48:36;;;;;;;52.17;28.17;;;;;;;;;;5068877;28;20024;-85
2024/01/14 04:51:01;;;;;;;62.83;30.00;;;;;;;;;;5069426;28;20845;-85
2024/01/14 04:53:27;;;;;;;539.70;182.90;;;;;;;;;;5059031;28;20024;-86
2024/01/14 04:55:53;;;;;;;437.03;121.63;;;;;;;;;;5061408;28;20016;-86
2024/01/14 04:58:18;;;;;;;110.90;40.17;;;;;;;;;;5064298;28;20024;-86
2024/01/14 05:00:44;;;;;;;119.53;47.43;;;;;;;;;;5068629;28;20107;-86
2024/01/14 05:03:09;;;;;;;114.50;45.67;;;;;;;;;;5059327;28;20025;-84
2024/01/14 05:05:34;;;;;;;47.43;22.80;;;;;;;;;;5068853;28;20120;-84
2024/01/14 05:07:59;;;;;;;32.80;17.40;;;;;;;;;;5064393;28;20165;-86
2024/01/14 05:10:25;;;;;;;23.37;13.23;;;;;;;;;;5078080;28;20016;-86
2024/01/14 05:12:52;;;;;;;32.87;16.20;;;;;;;;;;5068720;28;20020;-87
2024/01/14 05:15:17;;;;;;;46.50;23.97;;;;;;;;;;5068107;28;20039;-86
2024/01/14 05:17:42;;;;;;;75.83;42.80;;;;;;;;;;5066252;28;20272;-83
2024/01/14 05:20:11;;;;;;;24.80;14.83;;;;;;;;;;5066988;28;20070;-84
2024/01/14 05:22:36;;;;;;;28.70;15.68;;;;;;;;;;5067844;28;20032;-85
2024/01/14 05:25:01;;;;;;;29.47;15.70;;;;;;;;;;5076553;28;20080;-85
2024/01/14 05:27:27;;;;;;;32.80;17.87;;;;;;;;;;5043315;28;20078;-85
2024/01/14 05:29:53;;;;;;;34.43;19.07;;;;;;;;;;5057343;28;20094;-86
2024/01/14 05:32:18;;;;;;;31.97;17.93;;;;;;;;;;5046259;28;20037;-85
2024/01/14 05:34:44;;;;;;;27.43;15.67;;;;;;;;;;5044257;28;20058;-86
2024/01/14 05:37:10;;;;;;;32.00;16.80;;;;;;;;;;5041988;28;20024;-84
2024/01/14 05:39:35;;;;;;;34.27;17.70;;;;;;;;;;5040282;28;20035;-85
2024/01/14 05:42:01;;;;;;;35.33;19.13;;;;;;;;;;5057908;28;20020;-86
2024/01/14 05:44:26;;;;;;;32.47;16.00;;;;;;;;;;5058144;28;20691;-85
2024/01/14 05:46:52;;;;;;;44.50;22.70;;;;;;;;;;5055498;28;20020;-86
2024/01/14 05:49:18;;;;;;;25.93;13.70;;;;;;;;;;5041301;28;20008;-85
2024/01/14 05:51:43;;;;;;;24.80;13.40;;;;;;;;;;5059114;28;20016;-85
2024/01/14 05:54:08;;;;;;;55.43;27.03;;;;;;;;;;5038969;28;20020;-83
2024/01/14 05:56:33;;;;;;;25.57;14.30;;;;;;;;;;5043358;28;20104;-85
2024/01/14 05:59:00;;;;;;;37.93;21.20;;;;;;;;;;5041086;28;20478;-83
2024/01/14 06:01:29;;;;;;;28.87;15.87;;;;;;;;;;5037486;28;20107;-85
2024/01/14 06:03:54;;;;;;;55.85;26.08;;;;;;;;;;5047208;28;20025;-83
2024/01/14 06:06:20;;;;;;;37.53;22.00;;;;;;;;;;5056583;28;20528;-84
2024/01/14 06:08:45;;;;;;;38.37;19.13;;;;;;;;;;5048907;28;20085;-85
2024/01/14 06:11:12;;;;;;;30.70;17.10;;;;;;;;;;5047050;28;20043;-85
2024/01/14 06:13:37;;;;;;;42.27;21.43;;;;;;;;;;5077674;28;20027;-85
2024/01/14 06:16:02;;;;;;;61.40;26.53;;;;;;;;;;5048359;28;20044;-85
2024/01/14 06:18:28;;;;;;;31.03;15.97;;;;;;;;;;5044442;28;20029;-85
2024/01/14 06:20:55;;;;;;;74.30;32.17;;;;;;;;;;5051285;28;20021;-85
2024/01/14 06:23:21;;;;;;;38.13;19.93;;;;;;;;;;5065493;28;20043;-86
2024/01/14 06:25:46;;;;;;;41.57;21.10;;;;;;;;;;5058455;28;20031;-86
2024/01/14 06:28:12;;;;;;;50.67;28.03;;;;;;;;;;5045461;28;20534;-85
2024/01/14 06:30:37;;;;;;;44.30;28.57;;;;;;;;;;5049437;28;20647;-85
2024/01/14 06:33:02;;;;;;;45.87;27.57;;;;;;;;;;5054958;28;20103;-85
2024/01/14 06:35:28;;;;;;;59.50;32.63;;;;;;;;;;5051132;28;20490;-85
2024/01/14 06:37:53;;;;;;;45.70;24.97;;;;;;;;;;5074341;28;20050;-85
2024/01/14 06:40:18;;;;;;;107.77;55.33;;;;;;;;;;5073163;28;20061;-85
2024/01/14 06:42:44;;;;;;;39.07;24.87;;;;;;;;;;5053478;28;20020;-85
2024/01/14 06:45:11;;;;;;;33.20;18.97;;;;;;;;;;5062611;28;20149;-85
2024/01/14 06:47:37;;;;;;;42.47;24.67;;;;;;;;;;5069811;28;20487;-85
2024/01/14 06:50:04;;;;;;;113.20;47.20;;;;;;;;;;5082713;28;20023;-85
2024/01/14 06:52:30;;;;;;;128.70;54.47;;;;;;;;;;5068652;28;20038;-85
2024/01/14 06:54:55;;;;;;;175.70;74.73;;;;;;;;;;5049931;28;20212;-84
2024/01/14 06:57:20;;;;;;;145.63;55.67;;;;;;;;;;5054286;28;20016;-85
2024/01/14 06:59:46;;;;;;;185.73;67.87;;;;;;;;;;5083881;28;20020;-85
2024/01/14 07:02:14;;;;;;;195.27;68.43;;;;;;;;;;5066229;28;20110;-85
2024/01/14 07:04:40;;;;;;;181.80;62.25;;;;;;;;;;5069619;28;20145;-85
2024/01/14 07:07:05;;;;;;;159.53;51.77;;;;;;;;;;5047838;28;20508;-85
2024/01/14 07:09:30;;;;;;;166.97;51.43;;;;;;;;;;5066516;28;20016;-85
2024/01/14 07:11:56;;;;;;;161.50;49.23;;;;;;;;;;5069408;28;20020;-86
2024/01/14 07:14:22;;;;;;;98.70;33.67;;;;;;;;;;5047135;28;20031;-84
2024/01/14 07:16:48;;;;;;;215.07;55.27;;;;;;;;;;5065667;28;20048;-85
2024/01/14 07:19:13;;;;;;;269.83;70.80;;;;;;;;;;5065284;28;20032;-84
2024/01/14 07:21:38;;;;;;;180.40;59.03;;;;;;;;;;5064980;28;20028;-85
2024/01/14 07:24:04;;;;;;;414.07;124.70;;;;;;;;;;5055995;28;20021;-85
2024/01/14 07:26:29;;;;;;;246.10;84.23;;;;;;;;;;5068565;28;20570;-85
2024/01/14 07:28:54;;;;;;;459.00;147.33;;;;;;;;;;5059726;28;20093;-83
2024/01/14 07:31:23;;;;;;;229.70;83.65;;;;;;;;;;5059008;28;20023;-86
2024/01/14 07:33:50;;;;;;;500.33;179.77;;;;;;;;;;5049907;28;20575;-86
2024/01/14 07:36:15;;;;;;;195.02;66.68;;;;;;;;;;5067755;28;20059;-85
2024/01/14 07:38:40;;;;;;;222.60;81.70;;;;;;;;;;5066496;28;20016;-84
2024/01/14 07:41:06;;;;;;;143.18;63.75;;;;;;;;;;5065577;28;20100;-85
2024/01/14 07:43:36;;;;;;;190.77;77.70;;;;;;;;;;5053427;28;20077;-84
2024/01/14 07:46:01;;;;;;;144.68;63.05;;;;;;;;;;5041019;28;20122;-84
2024/01/14 07:48:27;;;;;;;262.70;109.30;;;;;;;;;;5046732;28;20024;-84
2024/01/14 07:50:55;;;;;;;117.78;48.63;;;;;;;;;;5098508;28;20019;-83
2024/01/14 07:53:21;;;;;;;96.37;46.07;;;;;;;;;;5089942;28;20023;-84
2024/01/14 07:55:46;;;;;;;140.35;58.63;;;;;;;;;;5068897;28;20016;-84
2024/01/14 07:58:11;;;;;;;137.63;62.15;;;;;;;;;;5074379;28;20024;-84
2024/01/14 08:00:38;;;;;;;115.68;58.70;;;;;;;;;;5076622;28;20145;-85
2024/01/14 08:03:03;;;;;;;112.15;55.92;;;;;;;;;;5049138;28;20078;-84
2024/01/14 08:05:29;;;;;;;88.63;41.53;;;;;;;;;;5052358;28;20017;-88
2024/01/14 08:07:54;;;;;;;161.80;83.20;;;;;;;;;;5062325;28;20009;-86
2024/01/14 08:10:19;;;;;;;141.32;70.15;;;;;;;;;;5058245;28;20104;-86
2024/01/14 08:12:45;;;;;;;84.07;40.72;;;;;;;;;;5070265;28;20589;-85
2024/01/14 08:15:15;;;;;;;59.03;28.48;;;;;;;;;;5064909;28;20100;-84
2024/01/14 08:17:40;;;;;;;116.30;65.93;;;;;;;;;;5068805;28;20040;-85
2024/01/14 08:20:06;;;;;;;70.60;33.88;;;;;;;;;;5082444;28;20012;-87
2024/01/14 08:22:32;;;;;;;89.38;46.70;;;;;;;;;;5081544;28;20561;-85
2024/01/14 08:24:57;;;;;;;52.45;27.17;;;;;;;;;;5071342;28;20250;-84
2024/01/14 08:27:24;;;;;;;67.97;32.88;;;;;;;;;;5064881;28;20025;-85
2024/01/14 08:29:49;;;;;;;51.40;28.20;;;;;;;;;;5061686;28;20223;-85
2024/01/14 08:32:14;;;;;;;75.70;41.53;;;;;;;;;;5057000;28;20046;-86
2024/01/14 08:34:46;;;;;;;118.05;59.58;;;;;;;;;;5077658;28;20024;-87
2024/01/14 08:37:11;;;;;;;85.55;44.47;;;;;;;;;;5076075;28;20017;-87
2024/01/14 08:39:36;;;;;;;122.68;58.65;;;;;;;;;;5078025;28;20024;-87
2024/01/14 08:42:02;;;;;;;156.75;72.00;;;;;;;;;;5083249;28;20031;-86
2024/01/14 08:44:27;;;;;;;135.90;67.78;;;;;;;;;;5055656;28;20032;-86
2024/01/14 08:46:54;;;;;;;105.25;58.83;;;;;;;;;;5063753;28;20013;-86
2024/01/14 08:49:19;;;;;;;93.10;49.33;;;;;;;;;;5071762;28;20020;-87
2024/01/14 08:51:45;;;;;;;116.90;65.00;;;;;;;;;;5069443;28;20095;-85
2024/01/14 08:54:12;;;;;;;82.20;52.97;;;;;;;;;;5073347;28;20031;-87
2024/01/14 08:56:37;;;;;;;50.67;31.52;;;;;;;;;;5050269;28;20036;-86
2024/01/14 08:59:03;;;;;;;51.13;31.80;;;;;;;;;;5050267;28;20513;-86
2024/01/14 09:01:28;;;;;;;53.78;34.25;;;;;;;;;;5035609;28;20035;-85
2024/01/14 09:03:54;;;;;;;43.00;28.85;;;;;;;;;;5063683;28;20108;-87
2024/01/14 09:06:19;;;;;;;42.97;30.90;;;;;;;;;;5056518;28;20082;-84
2024/01/14 09:08:44;;;;;;;40.80;28.23;;;;;;;;;;5064387;28;20016;-86
2024/01/14 09:11:11;;;;;;;56.20;36.85;;;;;;;;;;5078685;28;20424;-86
2024/01/14 09:13:36;;;;;;;85.55;49.83;;;;;;;;;;5060983;28;20082;-86
2024/01/14 09:16:02;;;;;;;79.32;46.83;;;;;;;;;;5064731;28;20637;-86
2024/01/14 09:18:27;;;;;;;70.28;42.78;;;;;;;;;;5061319;28;20029;-87
2024/01/14 09:20:52;;;;;;;74.35;47.03;;;;;;;;;;5062303;28;20020;-84
2024/01/14 09:23:18;;;;;;;98.63;60.33;;;;;;;;;;5060593;28;20004;-87
2024/01/14 09:25:44;;;;;;;104.00;60.90;;;;;;;;;;5064843;28;20016;-85
2024/01/14 09:28:10;;;;;;;233.07;125.13;;;;;;;;;;5039731;28;20474;-84
2024/01/14 09:30:35;;;;;;;128.20;75.00;;;;;;;;;;5062715;28;20171;-85
2024/01/14 09:33:01;;;;;;;119.65;81.55;;;;;;;;;;5065293;28;20782;-89
2024/01/14 09:35:26;;;;;;;83.80;56.35;;;;;;;;;;5066944;28;20059;-89
2024/01/14 09:37:51;;;;;;;94.00;55.85;;;;;;;;;;5049154;28;20112;-83
2024/01/14 09:40:17;;;;;;;75.00;44.35;;;;;;;;;;5063642;28;20055;-89
2024/01/14 09:42:47;;;;;;;105.63;63.22;;;;;;;;;;5067528;28;20094;-87
2024/01/14 09:45:13;;;;;;;67.60;44.13;;;;;;;;;;5053196;28;20122;-88
2024/01/14 09:47:39;;;;;;;53.00;37.03;;;;;;;;;;5067960;28;20012;-88
2024/01/14 09:50:08;;;;;;;79.43;52.35;;;;;;;;;;5051061;28;20012;-89
2024/01/14 09:52:34;;;;;;;98.60;53.13;;;;;;;;;;5044170;28;20012;-89
2024/01/14 09:55:00;;;;;;;64.40;40.75;;;;;;;;;;5047059;28;20016;-89
2024/01/14 09:57:30;;;;;;;57.70;37.25;;;;;;;;;;5029171;28;20035;-87
2024/01/14 09:59:55;;;;;;;114.88;59.80;;;;;;;;;;5072232;28;20521;-88
2024/01/14 10:02:21;;;;;;;104.45;57.17;;;;;;;;;;5078996;28;20023;-86
2024/01/14 10:04:47;;;;;;;70.90;45.20;;;;;;;;;;5071820;28;20047;-88
2024/01/14 10:07:13;;;;;;;111.65;60.92;;;;;;;;;;5058449;28;20553;-87
2024/01/14 10:09:42;;;;;;;299.60;155.07;;;;;;;;;;5055869;28;20023;-87
2024/01/14 10:12:08;;;;;;;47.60;30.75;;;;;;;;;;5043012;28;20024;-86
2024/01/14 10:14:34;;;;;;;31.02;20.70;;;;;;;;;;5051836;28;20059;-87
2024/01/14 10:16:59;;;;;;;49.38;33.20;;;;;;;;;;5047850;28;20157;-89
2024/01/14 10:19:25;;;;;;;71.45;48.05;;;;;;;;;;5046677;28;20056;-85
2024/01/14 10:21:52;;;;;;;44.97;27.92;;;;;;;;;;5066443;28;20075;-88
2024/01/14 10:24:19;;;;;;;59.03;31.33;;;;;;;;;;5029868;28;20110;-87
2024/01/14 10:26:44;;;;;;;75.05;39.25;;;;;;;;;;5068448;28;20016;-87
2024/01/14 10:29:10;;;;;;;172.45;112.25;;;;;;;;;;5061547;28;20672;-87
2024/01/14 10:31:36;;;;;;;68.20;46.17;;;;;;;;;;5064723;28;20106;-87
2024/01/14 10:34:04;;;;;;;106.07;66.97;;;;;;;;;;5073424;28;20095;-88
2024/01/14 10:36:33;;;;;;;81.47;54.45;;;;;;;;;;5071276;28;20721;-86
2024/01/14 10:39:02;;;;;;;80.55;57.40;;;;;;;;;;5044527;28;20023;-88
2024/01/14 10:41:27;;;;;;;44.15;29.23;;;;;;;;;;5064847;28;20063;-88
2024/01/14 10:43:53;;;;;;;57.83;35.15;;;;;;;;;;5042098;28;20056;-86
2024/01/14 10:46:18;;;;;;;26.05;17.35;;;;;;;;;;5069783;28;20019;-86
2024/01/14 10:48:47;;;;;;;193.15;100.22;;;;;;;;;;5062058;28;20630;-89
2024/01/14 10:51:13;;;;;;;98.50;63.40;;;;;;;;;;5052149;28;20506;-89
2024/01/14 10:53:58;;;;;;;74.15;40.20;;;;;;;;;;5040368;28;20108;-86
2024/01/14 10:56:28;;;;;;;57.97;35.42;;;;;;;;;;4989176;28;20567;-88
2024/01/14 10:58:56;;;;;;;73.97;42.22;;;;;;;;;;4961842;28;20026;-86
2024/01/14 11:01:23;;;;;;;56.10;31.85;;;;;;;;;;4993966;28;20173;-85
2024/01/14 11:03:51;;;;;;;63.22;35.25;;;;;;;;;;5000687;28;20726;-85
2024/01/14 11:06:18;;;;;;;26.63;17.52;;;;;;;;;;4980221;28;20680;-85
2024/01/14 11:08:44;;;;;;;43.17;26.30;;;;;;;;;;4962465;28;20026;-87
2024/01/14 11:11:10;;;;;;;70.45;43.83;;;;;;;;;;4967633;28;20540;-84
2024/01/14 11:13:42;;;;;;;38.45;22.38;;;;;;;;;;4976237;28;20119;-85
2024/01/14 11:16:21;;;;;;;92.63;50.53;;;;;;;;;;4977630;28;20038;-86
2024/01/14 11:18:55;;;;;;;73.20;45.97;;;;;;;;;;4961654;28;20080;-86
2024/01/14 11:21:43;;;;;;;32.58;22.02;;;;;;;;;;4973542;28;20043;-86
2024/01/14 11:24:09;;;;;;;47.83;30.55;;;;;;;;;;4973383;28;20049;-87
2024/01/14 11:26:35;;;;;;;37.40;19.77;;;;;;;;;;4987867;28;20112;-85
2024/01/14 11:29:02;;;;;;;93.38;50.42;;;;;;;;;;5053807;28;20119;-87
2024/01/14 11:31:47;;;;;;;104.53;59.85;;;;;;;;;;5066573;28;20063;-85
2024/01/14 11:34:33;;;;;;;84.55;44.10;;;;;;;;;;5043198;28;20027;-88
2024/01/14 11:36:58;;;;;;;86.43;55.28;;;;;;;;;;5063218;28;20628;-88
2024/01/14 11:39:23;;;;;;;104.57;66.32;;;;;;;;;;5057255;28;20429;-88
2024/01/14 11:41:52;;;;;;;47.58;30.17;;;;;;;;;;5074449;28;20069;-87
2024/01/14 11:44:35;;;;;;;41.67;28.80;;;;;;;;;;5060081;28;20069;-87
2024/01/14 11:47:20;;;;;;;36.00;21.15;;;;;;;;;;5047518;28;20024;-87
2024/01/14 11:49:50;;;;;;;44.97;33.60;;;;;;;;;;5062014;28;20643;-86
2024/01/14 11:52:16;;;;;;;37.45;24.50;;;;;;;;;;5063136;28;20202;-87
2024/01/14 11:54:43;;;;;;;26.05;18.38;;;;;;;;;;5042721;28;20651;-85
2024/01/14 11:57:20;;;;;;;22.73;14.68;;;;;;;;;;5063067;28;20032;-85
2024/01/14 11:59:46;;;;;;;26.63;16.88;;;;;;;;;;5069324;28;20031;-87
2024/01/14 12:02:17;;;;;;;32.10;20.50;;;;;;;;;;5074590;28;20025;-88
2024/01/14 12:04:47;;;;;;;33.22;20.38;;;;;;;;;;5040905;28;20608;-83
2024/01/14 12:07:19;;;;;;;27.25;20.13;;;;;;;;;;5035129;28;20025;-86
2024/01/14 12:09:50;;;;;;;31.77;21.70;;;;;;;;;;5042008;28;20253;-85
2024/01/14 12:12:16;;;;;;;32.67;20.48;;;;;;;;;;5081794;28;20317;-86
2024/01/14 12:14:41;;;;;;;27.90;19.08;;;;;;;;;;5064688;28;20107;-87
2024/01/14 12:17:10;;;;;;;29.92;20.48;;;;;;;;;;5069608;28;20545;-86
2024/01/14 12:19:35;;;;;;;22.63;14.70;;;;;;;;;;5062637;28;20246;-87
2024/01/14 12:22:01;;;;;;;30.90;20.00;;;;;;;;;;5048976;28;20032;-86
2024/01/14 12:24:28;;;;;;;43.00;26.92;;;;;;;;;;5044518;28;20027;-87
2024/01/14 12:26:57;;;;;;;20.67;11.75;;;;;;;;;;5054707;28;20024;-86
2024/01/14 12:29:23;;;;;;;43.03;30.38;;;;;;;;;;5045004;28;20019;-86
2024/01/14 12:31:48;;;;;;;27.45;18.25;;;;;;;;;;5060370;28;20016;-86
2024/01/14 12:34:14;;;;;;;30.02;20.58;;;;;;;;;;5061573;28;20477;-87
2024/01/14 12:36:39;;;;;;;63.95;45.35;;;;;;;;;;5042491;28;20036;-86
2024/01/14 12:39:04;;;;;;;55.65;35.47;;;;;;;;;;5068879;28;20020;-86
2024/01/14 12:41:30;;;;;;;52.42;38.10;;;;;;;;;;5079099;28;20109;-85
2024/01/14 12:43:56;;;;;;;39.53;24.38;;;;;;;;;;5058345;28;20111;-87
2024/01/14 12:46:22;;;;;;;98.85;71.82;;;;;;;;;;5057081;28;20053;-87
2024/01/14 12:48:47;;;;;;;72.45;44.03;;;;;;;;;;5078495;28;20086;-89
2024/01/14 12:51:17;;;;;;;43.75;31.65;;;;;;;;;;5056151;28;20165;-86
2024/01/14 12:53:43;;;;;;;61.20;39.08;;;;;;;;;;5070235;28;20107;-86
2024/01/14 12:56:12;;;;;;;58.88;36.50;;;;;;;;;;5045822;28;20139;-86
2024/01/14 12:58:38;;;;;;;36.30;22.80;;;;;;;;;;5025829;28;20230;-86
2024/01/14 13:01:05;;;;;;;38.75;26.30;;;;;;;;;;5049792;28;20036;-87
2024/01/14 13:03:38;;;;;;;47.67;31.48;;;;;;;;;;5065219;28;20028;-87
2024/01/14 13:06:04;;;;;;;49.65;32.47;;;;;;;;;;5069939;28;20065;-87
2024/01/14 13:08:32;;;;;;;59.70;37.25;;;;;;;;;;5074423;28;20132;-87
2024/01/14 13:10:58;;;;;;;83.32;50.75;;;;;;;;;;5067521;28;20016;-87
2024/01/14 13:13:24;;;;;;;46.47;29.20;;;;;;;;;;5063663;28;20035;-87
2024/01/14 13:15:49;;;;;;;32.83;24.05;;;;;;;;;;5077859;28;20059;-86
2024/01/14 13:18:14;;;;;;;32.70;22.38;;;;;;;;;;5045619;28;20033;-86
2024/01/14 13:20:40;;;;;;;37.83;22.08;;;;;;;;;;5065049;28;20649;-87
2024/01/14 13:23:06;;;;;;;29.73;19.73;;;;;;;;;;5062597;28;20020;-86
2024/01/14 13:25:32;;;;;;;33.53;20.15;;;;;;;;;;5081900;28;20747;-87
2024/01/14 13:27:57;;;;;;;32.08;20.52;;;;;;;;;;5067833;28;20025;-88
2024/01/14 13:30:23;;;;;;;33.70;21.60;;;;;;;;;;5053633;28;20509;-88
2024/01/14 13:32:49;;;;;;;36.65;20.77;;;;;;;;;;5064875;28;20541;-89
2024/01/14 13:35:15;;;;;;;39.60;22.58;;;;;;;;;;5074965;28;20580;-89
2024/01/14 13:37:40;;;;;;;122.82;58.35;;;;;;;;;;5061846;28;20181;-87
2024/01/14 13:40:05;;;;;;;50.63;29.25;;;;;;;;;;5087974;28;20099;-87
2024/01/14 13:42:31;;;;;;;97.75;52.28;;;;;;;;;;5075127;28;20121;-87
2024/01/14 13:44:57;;;;;;;164.73;96.82;;;;;;;;;;5045725;28;20644;-86
2024/01/14 13:47:22;;;;;;;163.80;82.55;;;;;;;;;;5050949;28;20027;-87
2024/01/14 13:49:48;;;;;;;159.93;81.78;;;;;;;;;;5048012;28;20028;-86
2024/01/14 13:52:16;;;;;;;211.10;112.10;;;;;;;;;;5046020;28;20020;-88
2024/01/14 13:54:41;;;;;;;211.98;120.18;;;;;;;;;;5063446;28;20115;-86
2024/01/14 13:57:07;;;;;;;308.77;157.93;;;;;;;;;;5052077;28;20660;-85
2024/01/14 13:59:34;;;;;;;201.25;107.90;;;;;;;;;;5044181;28;20110;-86
2024/01/14 14:02:00;;;;;;;525.40;260.45;;;;;;;;;;5049696;28;20752;-84
2024/01/14 14:04:25;;;;;;;230.80;121.22;;;;;;;;;;4997974;28;20041;-85
2024/01/14 14:06:51;;;;;;;165.52;94.20;;;;;;;;;;4993224;28;20302;-86
2024/01/14 14:09:17;;;;;;;100.90;63.10;;;;;;;;;;4979548;28;20025;-86